sensor_id;sensor_type;location;lat;lon;timestamp;P1;durP1;ratioP1;P2;durP2;ratioP2
68188;SDS011;66299;47.514;19.218;2023-03-11T00:00:44;7.03;;;2.50;;
68188;SDS011;66299;47.514;19.218;2023-03-11T00:03:15;7.03;;;2.30;;
68188;SDS011;66299;47.514;19.218;2023-03-11T00:05:53;6.78;;;2.03;;
68188;SDS011;66299;47.514;19.218;2023-03-11T00:08:24;5.55;;;1.92;;
68188;SDS011;66299;47.514;19.218;2023-03-11T00:10:56;6.80;;;2.28;;
68188;SDS011;66299;47.514;19.218;2023-03-11T00:13:29;5.78;;;2.00;;
68188;SDS011;66299;47.514;19.218;2023-03-11T00:16:03;8.95;;;2.10;;
68188;SDS011;66299;47.514;19.218;2023-03-11T00:18:33;5.15;;;1.80;;
68188;SDS011;66299;47.514;19.218;2023-03-11T00:21:01;3.78;;;1.70;;
68188;SDS011;66299;47.514;19.218;2023-03-11T00:23:31;5.35;;;1.88;;
68188;SDS011;66299;47.514;19.218;2023-03-11T00:26:03;4.22;;;1.63;;
68188;SDS011;66299;47.514;19.218;2023-03-11T00:28:34;4.10;;;1.58;;
68188;SDS011;66299;47.514;19.218;2023-03-11T00:31:03;4.65;;;1.67;;
68188;SDS011;66299;47.514;19.218;2023-03-11T00:33:33;3.33;;;1.45;;
68188;SDS011;66299;47.514;19.218;2023-03-11T00:36:02;3.65;;;1.50;;
68188;SDS011;66299;47.514;19.218;2023-03-11T00:38:32;2.85;;;1.40;;
68188;SDS011;66299;47.514;19.218;2023-03-11T00:41:01;3.55;;;1.50;;
68188;SDS011;66299;47.514;19.218;2023-03-11T00:43:31;3.70;;;1.67;;
68188;SDS011;66299;47.514;19.218;2023-03-11T00:46:00;5.30;;;1.50;;
68188;SDS011;66299;47.514;19.218;2023-03-11T00:48:30;3.80;;;1.50;;
68188;SDS011;66299;47.514;19.218;2023-03-11T00:50:59;4.90;;;1.60;;
68188;SDS011;66299;47.514;19.218;2023-03-11T00:53:32;3.15;;;1.48;;
68188;SDS011;66299;47.514;19.218;2023-03-11T00:56:05;4.38;;;1.42;;
68188;SDS011;66299;47.514;19.218;2023-03-11T00:58:37;3.20;;;1.40;;
68188;SDS011;66299;47.514;19.218;2023-03-11T01:01:07;4.40;;;1.30;;
68188;SDS011;66299;47.514;19.218;2023-03-11T01:03:37;3.97;;;1.38;;
68188;SDS011;66299;47.514;19.218;2023-03-11T01:06:06;3.90;;;1.52;;
68188;SDS011;66299;47.514;19.218;2023-03-11T01:08:36;2.55;;;1.30;;
68188;SDS011;66299;47.514;19.218;2023-03-11T01:11:06;3.80;;;1.50;;
68188;SDS011;66299;47.514;19.218;2023-03-11T01:13:38;3.70;;;1.40;;
68188;SDS011;66299;47.514;19.218;2023-03-11T01:16:07;4.90;;;1.52;;
68188;SDS011;66299;47.514;19.218;2023-03-11T01:18:35;6.28;;;1.40;;
68188;SDS011;66299;47.514;19.218;2023-03-11T01:21:06;3.60;;;1.45;;
68188;SDS011;66299;47.514;19.218;2023-03-11T01:23:35;4.60;;;1.52;;
68188;SDS011;66299;47.514;19.218;2023-03-11T01:26:04;2.88;;;1.30;;
68188;SDS011;66299;47.514;19.218;2023-03-11T01:28:33;3.47;;;1.30;;
68188;SDS011;66299;47.514;19.218;2023-03-11T01:31:03;4.75;;;1.50;;
68188;SDS011;66299;47.514;19.218;2023-03-11T01:33:33;3.70;;;1.50;;
68188;SDS011;66299;47.514;19.218;2023-03-11T01:36:02;4.13;;;1.40;;
68188;SDS011;66299;47.514;19.218;2023-03-11T01:38:31;3.85;;;1.40;;
68188;SDS011;66299;47.514;19.218;2023-03-11T01:41:01;4.25;;;1.50;;
68188;SDS011;66299;47.514;19.218;2023-03-11T01:43:38;3.55;;;1.40;;
68188;SDS011;66299;47.514;19.218;2023-03-11T01:46:20;4.18;;;1.42;;
68188;SDS011;66299;47.514;19.218;2023-03-11T01:48:52;3.15;;;1.40;;
68188;SDS011;66299;47.514;19.218;2023-03-11T01:51:23;5.15;;;1.60;;
68188;SDS011;66299;47.514;19.218;2023-03-11T01:53:55;4.80;;;1.45;;
68188;SDS011;66299;47.514;19.218;2023-03-11T01:56:26;3.65;;;1.40;;
68188;SDS011;66299;47.514;19.218;2023-03-11T01:58:55;4.00;;;1.50;;
68188;SDS011;66299;47.514;19.218;2023-03-11T02:01:25;3.30;;;1.42;;
68188;SDS011;66299;47.514;19.218;2023-03-11T02:03:56;6.90;;;1.60;;
68188;SDS011;66299;47.514;19.218;2023-03-11T02:06:25;4.35;;;1.55;;
68188;SDS011;66299;47.514;19.218;2023-03-11T02:08:53;5.70;;;1.60;;
68188;SDS011;66299;47.514;19.218;2023-03-11T02:11:23;5.00;;;1.60;;
68188;SDS011;66299;47.514;19.218;2023-03-11T02:13:57;5.38;;;1.60;;
68188;SDS011;66299;47.514;19.218;2023-03-11T02:16:28;3.63;;;1.50;;
68188;SDS011;66299;47.514;19.218;2023-03-11T02:18:57;3.38;;;1.40;;
68188;SDS011;66299;47.514;19.218;2023-03-11T02:21:32;3.22;;;1.40;;
68188;SDS011;66299;47.514;19.218;2023-03-11T02:24:03;5.22;;;1.50;;
68188;SDS011;66299;47.514;19.218;2023-03-11T02:26:36;4.00;;;1.60;;
68188;SDS011;66299;47.514;19.218;2023-03-11T02:29:13;5.15;;;1.55;;
68188;SDS011;66299;47.514;19.218;2023-03-11T02:31:43;4.43;;;1.50;;
68188;SDS011;66299;47.514;19.218;2023-03-11T02:34:15;5.68;;;1.50;;
68188;SDS011;66299;47.514;19.218;2023-03-11T02:36:47;2.60;;;1.35;;
68188;SDS011;66299;47.514;19.218;2023-03-11T02:39:16;4.90;;;1.58;;
68188;SDS011;66299;47.514;19.218;2023-03-11T02:41:56;4.75;;;1.55;;
68188;SDS011;66299;47.514;19.218;2023-03-11T02:44:29;4.28;;;1.45;;
68188;SDS011;66299;47.514;19.218;2023-03-11T02:46:58;5.15;;;1.52;;
68188;SDS011;66299;47.514;19.218;2023-03-11T02:49:29;4.90;;;1.50;;
68188;SDS011;66299;47.514;19.218;2023-03-11T02:51:59;5.43;;;1.38;;
68188;SDS011;66299;47.514;19.218;2023-03-11T02:54:27;5.93;;;1.50;;
68188;SDS011;66299;47.514;19.218;2023-03-11T02:56:55;7.43;;;1.52;;
68188;SDS011;66299;47.514;19.218;2023-03-11T02:59:24;2.60;;;1.27;;
68188;SDS011;66299;47.514;19.218;2023-03-11T03:01:54;7.53;;;1.60;;
68188;SDS011;66299;47.514;19.218;2023-03-11T03:04:23;3.03;;;1.30;;
68188;SDS011;66299;47.514;19.218;2023-03-11T03:06:52;2.65;;;1.27;;
68188;SDS011;66299;47.514;19.218;2023-03-11T03:09:22;2.45;;;1.30;;
68188;SDS011;66299;47.514;19.218;2023-03-11T03:11:50;5.47;;;1.33;;
68188;SDS011;66299;47.514;19.218;2023-03-11T03:14:18;4.68;;;1.40;;
68188;SDS011;66299;47.514;19.218;2023-03-11T03:16:47;10.15;;;1.50;;
68188;SDS011;66299;47.514;19.218;2023-03-11T03:19:17;3.72;;;1.30;;
68188;SDS011;66299;47.514;19.218;2023-03-11T03:21:45;3.88;;;1.48;;
68188;SDS011;66299;47.514;19.218;2023-03-11T03:24:15;3.70;;;1.40;;
68188;SDS011;66299;47.514;19.218;2023-03-11T03:26:44;3.85;;;1.33;;
68188;SDS011;66299;47.514;19.218;2023-03-11T03:29:13;3.70;;;1.40;;
68188;SDS011;66299;47.514;19.218;2023-03-11T03:31:42;4.10;;;1.50;;
68188;SDS011;66299;47.514;19.218;2023-03-11T03:34:10;4.85;;;1.60;;
68188;SDS011;66299;47.514;19.218;2023-03-11T03:36:43;6.38;;;1.52;;
68188;SDS011;66299;47.514;19.218;2023-03-11T03:39:16;4.88;;;1.48;;
68188;SDS011;66299;47.514;19.218;2023-03-11T03:41:46;4.03;;;1.60;;
68188;SDS011;66299;47.514;19.218;2023-03-11T03:44:16;4.00;;;1.50;;
68188;SDS011;66299;47.514;19.218;2023-03-11T03:46:45;4.57;;;1.50;;
68188;SDS011;66299;47.514;19.218;2023-03-11T03:49:13;5.25;;;1.70;;
68188;SDS011;66299;47.514;19.218;2023-03-11T03:51:43;5.05;;;1.50;;
68188;SDS011;66299;47.514;19.218;2023-03-11T03:54:12;3.90;;;1.50;;
68188;SDS011;66299;47.514;19.218;2023-03-11T03:56:43;5.72;;;1.50;;
68188;SDS011;66299;47.514;19.218;2023-03-11T03:59:12;3.50;;;1.42;;
68188;SDS011;66299;47.514;19.218;2023-03-11T04:01:40;4.45;;;1.60;;
68188;SDS011;66299;47.514;19.218;2023-03-11T04:04:11;4.10;;;1.40;;
68188;SDS011;66299;47.514;19.218;2023-03-11T04:06:41;4.68;;;1.63;;
68188;SDS011;66299;47.514;19.218;2023-03-11T04:09:11;6.82;;;1.40;;
68188;SDS011;66299;47.514;19.218;2023-03-11T04:11:40;3.95;;;1.40;;
68188;SDS011;66299;47.514;19.218;2023-03-11T04:14:08;3.92;;;1.40;;
68188;SDS011;66299;47.514;19.218;2023-03-11T04:16:37;6.05;;;1.40;;
68188;SDS011;66299;47.514;19.218;2023-03-11T04:19:06;3.10;;;1.30;;
68188;SDS011;66299;47.514;19.218;2023-03-11T04:21:34;3.33;;;1.48;;
68188;SDS011;66299;47.514;19.218;2023-03-11T04:24:05;3.25;;;1.20;;
68188;SDS011;66299;47.514;19.218;2023-03-11T04:26:37;4.60;;;1.40;;
68188;SDS011;66299;47.514;19.218;2023-03-11T04:29:06;3.28;;;1.40;;
68188;SDS011;66299;47.514;19.218;2023-03-11T04:31:35;7.85;;;1.50;;
68188;SDS011;66299;47.514;19.218;2023-03-11T04:34:03;5.75;;;1.65;;
68188;SDS011;66299;47.514;19.218;2023-03-11T04:36:35;3.25;;;1.38;;
68188;SDS011;66299;47.514;19.218;2023-03-11T04:39:04;6.88;;;1.50;;
68188;SDS011;66299;47.514;19.218;2023-03-11T04:41:33;5.78;;;1.80;;
68188;SDS011;66299;47.514;19.218;2023-03-11T04:44:04;5.72;;;1.38;;
68188;SDS011;66299;47.514;19.218;2023-03-11T04:46:33;3.78;;;1.50;;
68188;SDS011;66299;47.514;19.218;2023-03-11T04:49:01;4.70;;;1.67;;
68188;SDS011;66299;47.514;19.218;2023-03-11T04:51:30;7.55;;;1.58;;
68188;SDS011;66299;47.514;19.218;2023-03-11T04:54:00;5.60;;;1.70;;
68188;SDS011;66299;47.514;19.218;2023-03-11T04:56:28;14.50;;;1.63;;
68188;SDS011;66299;47.514;19.218;2023-03-11T04:58:57;11.80;;;1.50;;
68188;SDS011;66299;47.514;19.218;2023-03-11T05:01:29;15.68;;;1.85;;
68188;SDS011;66299;47.514;19.218;2023-03-11T05:03:59;12.18;;;1.83;;
68188;SDS011;66299;47.514;19.218;2023-03-11T05:06:28;12.90;;;1.67;;
68188;SDS011;66299;47.514;19.218;2023-03-11T05:08:56;10.85;;;1.60;;
68188;SDS011;66299;47.514;19.218;2023-03-11T05:11:25;13.55;;;1.95;;
68188;SDS011;66299;47.514;19.218;2023-03-11T05:13:53;16.05;;;1.88;;
68188;SDS011;66299;47.514;19.218;2023-03-11T05:16:22;15.38;;;1.95;;
68188;SDS011;66299;47.514;19.218;2023-03-11T05:18:53;18.58;;;2.03;;
68188;SDS011;66299;47.514;19.218;2023-03-11T05:21:21;14.90;;;1.75;;
68188;SDS011;66299;47.514;19.218;2023-03-11T05:23:50;15.10;;;2.17;;
68188;SDS011;66299;47.514;19.218;2023-03-11T05:26:18;13.32;;;1.88;;
68188;SDS011;66299;47.514;19.218;2023-03-11T05:28:47;13.65;;;2.00;;
68188;SDS011;66299;47.514;19.218;2023-03-11T05:31:16;17.25;;;1.63;;
68188;SDS011;66299;47.514;19.218;2023-03-11T05:33:44;8.52;;;1.80;;
68188;SDS011;66299;47.514;19.218;2023-03-11T05:36:16;15.32;;;1.80;;
68188;SDS011;66299;47.514;19.218;2023-03-11T05:38:47;13.90;;;1.80;;
68188;SDS011;66299;47.514;19.218;2023-03-11T05:41:15;9.07;;;2.00;;
68188;SDS011;66299;47.514;19.218;2023-03-11T05:43:44;6.10;;;1.70;;
68188;SDS011;66299;47.514;19.218;2023-03-11T05:46:14;8.38;;;1.80;;
68188;SDS011;66299;47.514;19.218;2023-03-11T05:48:42;3.97;;;1.60;;
68188;SDS011;66299;47.514;19.218;2023-03-11T05:51:11;4.13;;;1.60;;
68188;SDS011;66299;47.514;19.218;2023-03-11T05:53:42;4.40;;;1.70;;
68188;SDS011;66299;47.514;19.218;2023-03-11T05:56:14;4.50;;;1.60;;
68188;SDS011;66299;47.514;19.218;2023-03-11T06:01:16;5.65;;;1.70;;
68188;SDS011;66299;47.514;19.218;2023-03-11T06:03:45;7.53;;;1.60;;
68188;SDS011;66299;47.514;19.218;2023-03-11T06:06:13;4.28;;;1.50;;
68188;SDS011;66299;47.514;19.218;2023-03-11T06:08:44;5.07;;;1.60;;
68188;SDS011;66299;47.514;19.218;2023-03-11T06:11:16;6.20;;;1.63;;
68188;SDS011;66299;47.514;19.218;2023-03-11T06:13:45;3.85;;;1.60;;
68188;SDS011;66299;47.514;19.218;2023-03-11T06:16:14;3.88;;;1.58;;
68188;SDS011;66299;47.514;19.218;2023-03-11T06:18:42;3.60;;;1.50;;
68188;SDS011;66299;47.514;19.218;2023-03-11T06:21:12;3.50;;;1.60;;
68188;SDS011;66299;47.514;19.218;2023-03-11T06:23:45;3.17;;;1.42;;
68188;SDS011;66299;47.514;19.218;2023-03-11T06:26:15;3.58;;;1.50;;
68188;SDS011;66299;47.514;19.218;2023-03-11T06:28:46;4.88;;;1.60;;
68188;SDS011;66299;47.514;19.218;2023-03-11T06:31:15;4.40;;;1.58;;
68188;SDS011;66299;47.514;19.218;2023-03-11T06:33:45;4.05;;;1.63;;
68188;SDS011;66299;47.514;19.218;2023-03-11T06:36:16;5.32;;;1.50;;
68188;SDS011;66299;47.514;19.218;2023-03-11T06:41:18;3.67;;;1.63;;
68188;SDS011;66299;47.514;19.218;2023-03-11T06:43:47;7.15;;;2.10;;
68188;SDS011;66299;47.514;19.218;2023-03-11T06:46:17;4.32;;;1.80;;
68188;SDS011;66299;47.514;19.218;2023-03-11T06:48:47;5.97;;;1.80;;
68188;SDS011;66299;47.514;19.218;2023-03-11T06:51:18;5.05;;;1.80;;
68188;SDS011;66299;47.514;19.218;2023-03-11T06:53:50;4.78;;;1.80;;
68188;SDS011;66299;47.514;19.218;2023-03-11T06:56:21;4.78;;;1.80;;
68188;SDS011;66299;47.514;19.218;2023-03-11T06:58:50;4.57;;;1.77;;
68188;SDS011;66299;47.514;19.218;2023-03-11T07:01:19;5.15;;;1.80;;
68188;SDS011;66299;47.514;19.218;2023-03-11T07:03:50;6.50;;;1.80;;
68188;SDS011;66299;47.514;19.218;2023-03-11T07:06:24;5.60;;;1.77;;
68188;SDS011;66299;47.514;19.218;2023-03-11T07:08:58;7.68;;;1.90;;
68188;SDS011;66299;47.514;19.218;2023-03-11T07:11:27;5.75;;;1.70;;
68188;SDS011;66299;47.514;19.218;2023-03-11T07:13:55;6.65;;;1.85;;
68188;SDS011;66299;47.514;19.218;2023-03-11T07:16:24;8.63;;;1.75;;
68188;SDS011;66299;47.514;19.218;2023-03-11T07:18:55;4.53;;;1.60;;
68188;SDS011;66299;47.514;19.218;2023-03-11T07:21:26;4.97;;;1.77;;
68188;SDS011;66299;47.514;19.218;2023-03-11T07:23:58;4.68;;;1.70;;
68188;SDS011;66299;47.514;19.218;2023-03-11T07:26:28;5.20;;;1.90;;
68188;SDS011;66299;47.514;19.218;2023-03-11T07:29:02;3.95;;;1.58;;
68188;SDS011;66299;47.514;19.218;2023-03-11T07:31:32;6.07;;;2.05;;
68188;SDS011;66299;47.514;19.218;2023-03-11T07:34:02;4.78;;;1.60;;
68188;SDS011;66299;47.514;19.218;2023-03-11T07:36:38;4.95;;;1.88;;
68188;SDS011;66299;47.514;19.218;2023-03-11T07:39:10;4.78;;;1.70;;
68188;SDS011;66299;47.514;19.218;2023-03-11T07:41:42;4.60;;;1.67;;
68188;SDS011;66299;47.514;19.218;2023-03-11T07:44:11;4.75;;;1.70;;
68188;SDS011;66299;47.514;19.218;2023-03-11T07:46:40;4.93;;;1.90;;
68188;SDS011;66299;47.514;19.218;2023-03-11T07:49:10;4.97;;;1.80;;
68188;SDS011;66299;47.514;19.218;2023-03-11T07:51:40;4.15;;;1.70;;
68188;SDS011;66299;47.514;19.218;2023-03-11T07:54:12;6.13;;;1.92;;
68188;SDS011;66299;47.514;19.218;2023-03-11T07:56:41;5.65;;;1.67;;
68188;SDS011;66299;47.514;19.218;2023-03-11T07:59:09;5.50;;;1.83;;
68188;SDS011;66299;47.514;19.218;2023-03-11T08:01:38;7.50;;;1.80;;
68188;SDS011;66299;47.514;19.218;2023-03-11T08:04:13;6.72;;;1.77;;
68188;SDS011;66299;47.514;19.218;2023-03-11T08:06:44;3.72;;;1.55;;
68188;SDS011;66299;47.514;19.218;2023-03-11T08:09:15;5.43;;;1.75;;
68188;SDS011;66299;47.514;19.218;2023-03-11T08:11:44;6.10;;;1.75;;
68188;SDS011;66299;47.514;19.218;2023-03-11T08:14:16;3.50;;;1.60;;
68188;SDS011;66299;47.514;19.218;2023-03-11T08:16:46;5.28;;;1.77;;
68188;SDS011;66299;47.514;19.218;2023-03-11T08:19:18;4.45;;;1.60;;
68188;SDS011;66299;47.514;19.218;2023-03-11T08:21:48;3.63;;;1.67;;
68188;SDS011;66299;47.514;19.218;2023-03-11T08:24:21;4.38;;;1.70;;
68188;SDS011;66299;47.514;19.218;2023-03-11T08:26:50;6.43;;;1.92;;
68188;SDS011;66299;47.514;19.218;2023-03-11T08:29:21;8.98;;;2.75;;
68188;SDS011;66299;47.514;19.218;2023-03-11T08:31:50;5.32;;;1.90;;
68188;SDS011;66299;47.514;19.218;2023-03-11T08:34:19;5.57;;;1.83;;
68188;SDS011;66299;47.514;19.218;2023-03-11T08:36:56;6.18;;;1.70;;
68188;SDS011;66299;47.514;19.218;2023-03-11T08:39:26;7.22;;;1.70;;
68188;SDS011;66299;47.514;19.218;2023-03-11T08:41:57;4.50;;;1.50;;
68188;SDS011;66299;47.514;19.218;2023-03-11T08:44:26;7.13;;;1.83;;
68188;SDS011;66299;47.514;19.218;2023-03-11T08:46:55;4.68;;;1.70;;
68188;SDS011;66299;47.514;19.218;2023-03-11T08:49:25;4.70;;;1.55;;
68188;SDS011;66299;47.514;19.218;2023-03-11T08:51:54;4.30;;;1.63;;
68188;SDS011;66299;47.514;19.218;2023-03-11T08:54:24;9.88;;;1.80;;
68188;SDS011;66299;47.514;19.218;2023-03-11T08:56:54;4.63;;;1.80;;
68188;SDS011;66299;47.514;19.218;2023-03-11T08:59:23;6.20;;;1.90;;
68188;SDS011;66299;47.514;19.218;2023-03-11T09:01:53;5.45;;;1.70;;
68188;SDS011;66299;47.514;19.218;2023-03-11T09:04:22;5.90;;;1.70;;
68188;SDS011;66299;47.514;19.218;2023-03-11T09:06:52;7.63;;;1.95;;
68188;SDS011;66299;47.514;19.218;2023-03-11T09:09:21;5.90;;;1.55;;
68188;SDS011;66299;47.514;19.218;2023-03-11T09:11:51;7.15;;;1.70;;
68188;SDS011;66299;47.514;19.218;2023-03-11T09:14:22;7.70;;;1.60;;
68188;SDS011;66299;47.514;19.218;2023-03-11T09:16:50;5.68;;;1.60;;
68188;SDS011;66299;47.514;19.218;2023-03-11T09:19:21;7.68;;;1.77;;
68188;SDS011;66299;47.514;19.218;2023-03-11T09:21:51;4.47;;;1.70;;
68188;SDS011;66299;47.514;19.218;2023-03-11T09:24:20;9.35;;;1.88;;
68188;SDS011;66299;47.514;19.218;2023-03-11T09:26:49;6.35;;;1.60;;
68188;SDS011;66299;47.514;19.218;2023-03-11T09:29:17;5.25;;;2.25;;
68188;SDS011;66299;47.514;19.218;2023-03-11T09:31:47;6.93;;;1.60;;
68188;SDS011;66299;47.514;19.218;2023-03-11T09:34:16;6.65;;;1.63;;
68188;SDS011;66299;47.514;19.218;2023-03-11T09:36:45;8.75;;;1.50;;
68188;SDS011;66299;47.514;19.218;2023-03-11T09:39:14;7.18;;;1.60;;
68188;SDS011;66299;47.514;19.218;2023-03-11T09:41:44;7.35;;;1.70;;
68188;SDS011;66299;47.514;19.218;2023-03-11T09:44:26;7.75;;;1.70;;
68188;SDS011;66299;47.514;19.218;2023-03-11T09:50:00;6.95;;;1.60;;
68188;SDS011;66299;47.514;19.218;2023-03-11T09:52:57;5.65;;;1.80;;
68188;SDS011;66299;47.514;19.218;2023-03-11T09:55:37;5.28;;;1.70;;
68188;SDS011;66299;47.514;19.218;2023-03-11T09:58:09;5.82;;;1.80;;
68188;SDS011;66299;47.514;19.218;2023-03-11T10:00:40;10.43;;;1.80;;
68188;SDS011;66299;47.514;19.218;2023-03-11T10:03:16;4.47;;;1.50;;
68188;SDS011;66299;47.514;19.218;2023-03-11T10:05:56;5.03;;;1.65;;
68188;SDS011;66299;47.514;19.218;2023-03-11T10:08:37;6.68;;;1.60;;
68188;SDS011;66299;47.514;19.218;2023-03-11T10:11:28;6.75;;;1.70;;
68188;SDS011;66299;47.514;19.218;2023-03-11T10:14:12;7.72;;;1.70;;
68188;SDS011;66299;47.514;19.218;2023-03-11T10:16:51;4.68;;;1.70;;
68188;SDS011;66299;47.514;19.218;2023-03-11T10:19:31;8.35;;;1.80;;
68188;SDS011;66299;47.514;19.218;2023-03-11T10:22:10;4.60;;;1.50;;
68188;SDS011;66299;47.514;19.218;2023-03-11T10:24:50;5.53;;;1.50;;
68188;SDS011;66299;47.514;19.218;2023-03-11T10:27:30;4.78;;;1.60;;
68188;SDS011;66299;47.514;19.218;2023-03-11T10:30:12;7.78;;;1.80;;
68188;SDS011;66299;47.514;19.218;2023-03-11T10:32:48;11.13;;;1.90;;
68188;SDS011;66299;47.514;19.218;2023-03-11T10:35:23;6.80;;;1.80;;
68188;SDS011;66299;47.514;19.218;2023-03-11T10:37:59;5.72;;;1.90;;
68188;SDS011;66299;47.514;19.218;2023-03-11T10:40:34;5.72;;;1.60;;
68188;SDS011;66299;47.514;19.218;2023-03-11T10:43:12;10.80;;;1.90;;
68188;SDS011;66299;47.514;19.218;2023-03-11T10:45:44;9.13;;;2.00;;
68188;SDS011;66299;47.514;19.218;2023-03-11T10:48:17;5.82;;;1.63;;
68188;SDS011;66299;47.514;19.218;2023-03-11T10:50:53;5.15;;;1.80;;
68188;SDS011;66299;47.514;19.218;2023-03-11T10:53:28;7.65;;;1.92;;
68188;SDS011;66299;47.514;19.218;2023-03-11T10:55:58;6.38;;;1.95;;
68188;SDS011;66299;47.514;19.218;2023-03-11T10:58:28;10.18;;;2.30;;
68188;SDS011;66299;47.514;19.218;2023-03-11T11:01:01;9.32;;;2.10;;
68188;SDS011;66299;47.514;19.218;2023-03-11T11:03:32;7.57;;;1.98;;
68188;SDS011;66299;47.514;19.218;2023-03-11T11:06:03;9.43;;;2.00;;
68188;SDS011;66299;47.514;19.218;2023-03-11T11:08:34;4.78;;;1.60;;
68188;SDS011;66299;47.514;19.218;2023-03-11T11:11:09;5.07;;;1.50;;
68188;SDS011;66299;47.514;19.218;2023-03-11T11:13:56;5.38;;;1.63;;
68188;SDS011;66299;47.514;19.218;2023-03-11T11:16:26;3.22;;;1.50;;
68188;SDS011;66299;47.514;19.218;2023-03-11T11:18:57;6.75;;;1.60;;
68188;SDS011;66299;47.514;19.218;2023-03-11T11:21:31;7.72;;;1.90;;
68188;SDS011;66299;47.514;19.218;2023-03-11T11:24:13;3.70;;;1.60;;
68188;SDS011;66299;47.514;19.218;2023-03-11T11:27:04;7.35;;;1.80;;
68188;SDS011;66299;47.514;19.218;2023-03-11T11:29:44;6.70;;;1.77;;
68188;SDS011;66299;47.514;19.218;2023-03-11T11:32:17;4.50;;;1.70;;
68188;SDS011;66299;47.514;19.218;2023-03-11T11:34:56;7.13;;;1.70;;
68188;SDS011;66299;47.514;19.218;2023-03-11T11:37:28;4.97;;;1.80;;
68188;SDS011;66299;47.514;19.218;2023-03-11T11:42:34;4.40;;;1.70;;
68188;SDS011;66299;47.514;19.218;2023-03-11T11:45:05;4.25;;;1.80;;
68188;SDS011;66299;47.514;19.218;2023-03-11T11:47:42;6.95;;;1.90;;
68188;SDS011;66299;47.514;19.218;2023-03-11T11:50:16;6.20;;;1.90;;
68188;SDS011;66299;47.514;19.218;2023-03-11T11:52:52;7.50;;;2.05;;
68188;SDS011;66299;47.514;19.218;2023-03-11T11:55:26;7.35;;;1.92;;
68188;SDS011;66299;47.514;19.218;2023-03-11T11:57:56;4.28;;;1.70;;
68188;SDS011;66299;47.514;19.218;2023-03-11T12:00:28;5.80;;;1.67;;
68188;SDS011;66299;47.514;19.218;2023-03-11T12:03:07;7.15;;;1.85;;
68188;SDS011;66299;47.514;19.218;2023-03-11T12:05:50;6.88;;;2.00;;
68188;SDS011;66299;47.514;19.218;2023-03-11T12:08:25;6.63;;;1.90;;
68188;SDS011;66299;47.514;19.218;2023-03-11T12:11:04;9.10;;;2.10;;
68188;SDS011;66299;47.514;19.218;2023-03-11T12:13:46;5.35;;;1.80;;
68188;SDS011;66299;47.514;19.218;2023-03-11T12:16:22;8.80;;;1.90;;
68188;SDS011;66299;47.514;19.218;2023-03-11T12:19:04;9.30;;;2.13;;
68188;SDS011;66299;47.514;19.218;2023-03-11T12:21:48;4.97;;;1.80;;
68188;SDS011;66299;47.514;19.218;2023-03-11T12:24:34;7.25;;;1.67;;
68188;SDS011;66299;47.514;19.218;2023-03-11T12:27:19;10.43;;;2.33;;
68188;SDS011;66299;47.514;19.218;2023-03-11T12:29:51;8.13;;;2.00;;
68188;SDS011;66299;47.514;19.218;2023-03-11T12:32:27;6.50;;;1.95;;
68188;SDS011;66299;47.514;19.218;2023-03-11T12:35:08;4.85;;;1.80;;
68188;SDS011;66299;47.514;19.218;2023-03-11T12:37:48;7.05;;;2.05;;
68188;SDS011;66299;47.514;19.218;2023-03-11T12:49:39;7.15;;;2.10;;
68188;SDS011;66299;47.514;19.218;2023-03-11T12:52:20;6.68;;;1.95;;
68188;SDS011;66299;47.514;19.218;2023-03-11T12:57:41;6.65;;;2.22;;
68188;SDS011;66299;47.514;19.218;2023-03-11T13:00:21;6.45;;;2.20;;
68188;SDS011;66299;47.514;19.218;2023-03-11T13:03:11;5.65;;;2.00;;
68188;SDS011;66299;47.514;19.218;2023-03-11T13:05:53;7.93;;;1.92;;
68188;SDS011;66299;47.514;19.218;2023-03-11T13:08:28;9.30;;;2.00;;
68188;SDS011;66299;47.514;19.218;2023-03-11T13:11:09;8.18;;;1.90;;
68188;SDS011;66299;47.514;19.218;2023-03-11T13:17:23;8.23;;;2.20;;
68188;SDS011;66299;47.514;19.218;2023-03-11T13:19:55;4.72;;;1.73;;
68188;SDS011;66299;47.514;19.218;2023-03-11T13:22:41;4.57;;;1.70;;
68188;SDS011;66299;47.514;19.218;2023-03-11T13:25:25;7.63;;;2.17;;
68188;SDS011;66299;47.514;19.218;2023-03-11T13:31:03;11.55;;;2.13;;
68188;SDS011;66299;47.514;19.218;2023-03-11T13:33:46;6.18;;;2.00;;
68188;SDS011;66299;47.514;19.218;2023-03-11T13:36:20;7.95;;;1.80;;
68188;SDS011;66299;47.514;19.218;2023-03-11T13:39:20;9.88;;;2.10;;
68188;SDS011;66299;47.514;19.218;2023-03-11T13:42:00;8.07;;;2.30;;
68188;SDS011;66299;47.514;19.218;2023-03-11T13:44:33;11.07;;;2.60;;
68188;SDS011;66299;47.514;19.218;2023-03-11T13:47:05;10.95;;;2.28;;
68188;SDS011;66299;47.514;19.218;2023-03-11T13:49:39;10.93;;;2.50;;
68188;SDS011;66299;47.514;19.218;2023-03-11T13:54:42;11.77;;;2.55;;
68188;SDS011;66299;47.514;19.218;2023-03-11T13:57:18;11.10;;;2.60;;
68188;SDS011;66299;47.514;19.218;2023-03-11T13:59:56;10.20;;;2.38;;
68188;SDS011;66299;47.514;19.218;2023-03-11T14:02:31;8.02;;;2.63;;
68188;SDS011;66299;47.514;19.218;2023-03-11T14:05:02;8.05;;;2.70;;
68188;SDS011;66299;47.514;19.218;2023-03-11T14:07:33;11.95;;;2.42;;
68188;SDS011;66299;47.514;19.218;2023-03-11T14:10:16;12.98;;;2.65;;
68188;SDS011;66299;47.514;19.218;2023-03-11T14:13:04;8.32;;;2.50;;
68188;SDS011;66299;47.514;19.218;2023-03-11T14:15:46;10.45;;;2.78;;
68188;SDS011;66299;47.514;19.218;2023-03-11T14:18:29;7.68;;;2.35;;
68188;SDS011;66299;47.514;19.218;2023-03-11T14:21:00;8.63;;;2.10;;
68188;SDS011;66299;47.514;19.218;2023-03-11T14:23:32;14.98;;;3.00;;
68188;SDS011;66299;47.514;19.218;2023-03-11T14:26:06;8.85;;;2.90;;
68188;SDS011;66299;47.514;19.218;2023-03-11T14:28:36;9.48;;;2.58;;
68188;SDS011;66299;47.514;19.218;2023-03-11T14:31:19;8.05;;;2.97;;
68188;SDS011;66299;47.514;19.218;2023-03-11T14:33:55;6.75;;;2.50;;
68188;SDS011;66299;47.514;19.218;2023-03-11T14:36:30;5.85;;;2.08;;
68188;SDS011;66299;47.514;19.218;2023-03-11T14:41:56;14.55;;;2.60;;
68188;SDS011;66299;47.514;19.218;2023-03-11T14:44:30;31.52;;;3.20;;
68188;SDS011;66299;47.514;19.218;2023-03-11T14:47:05;11.48;;;2.70;;
68188;SDS011;66299;47.514;19.218;2023-03-11T14:49:36;9.18;;;2.90;;
68188;SDS011;66299;47.514;19.218;2023-03-11T14:52:07;9.85;;;2.88;;
68188;SDS011;66299;47.514;19.218;2023-03-11T14:54:38;8.18;;;2.88;;
68188;SDS011;66299;47.514;19.218;2023-03-11T14:57:10;10.38;;;2.47;;
68188;SDS011;66299;47.514;19.218;2023-03-11T14:59:45;7.30;;;2.60;;
68188;SDS011;66299;47.514;19.218;2023-03-11T15:02:25;6.95;;;2.50;;
68188;SDS011;66299;47.514;19.218;2023-03-11T15:05:02;8.65;;;2.90;;
68188;SDS011;66299;47.514;19.218;2023-03-11T15:07:36;7.00;;;2.58;;
68188;SDS011;66299;47.514;19.218;2023-03-11T15:10:06;8.13;;;2.78;;
68188;SDS011;66299;47.514;19.218;2023-03-11T15:12:38;8.00;;;2.90;;
68188;SDS011;66299;47.514;19.218;2023-03-11T15:17:56;8.40;;;2.78;;
68188;SDS011;66299;47.514;19.218;2023-03-11T15:20:28;8.63;;;3.28;;
68188;SDS011;66299;47.514;19.218;2023-03-11T15:22:58;9.70;;;2.80;;
68188;SDS011;66299;47.514;19.218;2023-03-11T15:25:30;7.32;;;2.83;;
68188;SDS011;66299;47.514;19.218;2023-03-11T15:28:12;8.88;;;2.83;;
68188;SDS011;66299;47.514;19.218;2023-03-11T15:30:47;8.40;;;2.97;;
68188;SDS011;66299;47.514;19.218;2023-03-11T15:33:22;9.82;;;3.05;;
68188;SDS011;66299;47.514;19.218;2023-03-11T15:35:59;9.52;;;3.10;;
68188;SDS011;66299;47.514;19.218;2023-03-11T15:38:28;7.82;;;3.10;;
68188;SDS011;66299;47.514;19.218;2023-03-11T15:40:56;10.48;;;3.45;;